CheckWX is a tool to help pilots better visualize weather data.  It is not intended as a substitute for an official pre-flight weather briefing.

13:47:38 UTC

OMRK METAR
Ras Al Khaimah International Airport
Ras Al Khaimah, United Arab Emirates
Current

48 mins ago

OMRK 251300Z 32009KT CAVOK 40/20 Q1000 A2956
Observed
Aug-25 @ 13:00 UTC
Wind
  • 320° at 9 KTS
Visibility
10,000+ meters
Flight Rules
VFR
Cloud Levels
  • Clear skies
Temperature
40°C / 104°F
Dewpoint
20°C / 68°F
Humidity
31%
Altimeter
29.53" Hg
Pressure
999.92 hPa
Previous

2 hours ago

OMRK 251200Z 33008KT CAVOK 41/17 Q1000 A2955
Observed
Aug-25 @ 12:00 UTC
Wind
  • 330° at 8 KTS
Visibility
10,000+ meters
Flight Rules
VFR
Cloud Levels
  • Clear skies
Temperature
41°C / 106°F
Dewpoint
17°C / 63°F
Humidity
25%
Altimeter
29.53" Hg
Pressure
999.92 hPa
Previous

3 hours ago

OMRK 251100Z 33009KT CAVOK 41/17 Q1001 A2957
Observed
Aug-25 @ 11:00 UTC
Wind
  • 330° at 9 KTS
Visibility
10,000+ meters
Flight Rules
VFR
Cloud Levels
  • Clear skies
Temperature
41°C / 106°F
Dewpoint
17°C / 63°F
Humidity
25%
Altimeter
29.56" Hg
Pressure
1000.92 hPa